Time;durP1;ratioP1;P1;durP2;ratioP2;P2;SDS_P1;SDS_P2;PMS_P1;PMS_P2;Temp;Humidity;BMP_temperature;BMP_pressure;BME280_temperature;BME280_humidity;BME280_pressure;Samples;Min_cycle;Max_cycle;Signal;HPM_P1;HPM_P2
2023/02/04 00:01:00;;;;;;;;;16.20;14.00;;;;;8.14;64.68;97888.13;6146226;28;96442;-69
2023/02/04 00:04:04;;;;;;;;;15.00;14.00;;;;;8.35;64.31;97906.44;6145364;28;96190;-69
2023/02/04 00:07:07;;;;;;;;;15.00;14.00;;;;;8.34;64.41;97906.66;6145753;28;96310;-69
2023/02/04 00:10:11;;;;;;;;;14.00;13.00;;;;;8.33;64.72;97902.31;6143906;28;96324;-68
2023/02/04 00:13:14;;;;;;;;;16.20;15.00;;;;;8.32;64.95;97898.00;6147082;28;96265;-69
2023/02/04 00:16:19;;;;;;;;;15.00;13.00;;;;;8.36;65.11;97904.53;6150530;28;96327;-69
2023/02/04 00:19:23;;;;;;;;;14.00;13.20;;;;;8.46;64.99;97900.22;6149807;28;96828;-69
2023/02/04 00:22:27;;;;;;;;;13.40;12.00;;;;;8.43;64.68;97908.75;6148631;28;96586;-68
2023/02/04 00:25:31;;;;;;;;;12.20;12.00;;;;;8.40;65.17;97911.09;6141488;28;96590;-68
2023/02/04 00:28:34;;;;;;;;;12.00;12.00;;;;;8.55;64.88;97906.88;6137555;28;97005;-69
2023/02/04 00:31:39;;;;;;;;;11.00;11.00;;;;;8.50;64.99;97904.09;6143298;28;96681;-69
2023/02/04 00:34:43;;;;;;;;;11.60;11.40;;;;;8.50;65.17;97901.41;6143894;28;97820;-68
2023/02/04 00:37:46;;;;;;;;;13.00;12.00;;;;;8.67;64.76;97907.72;6144922;28;96364;-68
2023/02/04 00:40:50;;;;;;;;;10.00;9.00;;;;;8.67;64.79;97902.34;6145060;28;96502;-68
2023/02/04 00:43:53;;;;;;;;;11.60;9.00;;;;;8.52;65.14;97904.69;6141045;28;96516;-68
2023/02/04 00:46:58;;;;;;;;;14.40;13.00;;;;;8.56;65.38;97907.72;6144303;28;96490;-68
2023/02/04 00:50:02;;;;;;;;;9.00;8.00;;;;;8.58;65.03;97886.81;6142335;28;96364;-68
2023/02/04 00:53:06;;;;;;;;;8.60;8.40;;;;;8.61;64.92;97887.16;6142737;28;96695;-69
2023/02/04 00:56:09;;;;;;;;;10.20;9.60;;;;;8.66;65.00;97889.16;6143173;28;97319;-69
2023/02/04 00:59:12;;;;;;;;;7.25;7.25;;;;;8.51;65.41;97894.97;6142383;28;96283;-69
2023/02/04 01:02:17;;;;;;;;;11.00;10.00;;;;;8.59;65.22;97893.84;6142437;28;96603;-68
2023/02/04 01:05:20;;;;;;;;;10.25;9.25;;;;;8.49;65.49;97891.72;6143317;28;96342;-68
2023/02/04 01:08:24;;;;;;;;;10.00;8.40;;;;;8.49;65.53;97888.22;6144871;28;96832;-68
2023/02/04 01:11:27;;;;;;;;;8.40;8.00;;;;;8.42;65.84;97893.69;6145143;28;96318;-68
2023/02/04 01:14:31;;;;;;;;;8.25;7.25;;;;;8.38;66.07;97872.91;6133644;28;96661;-68
2023/02/04 01:17:36;;;;;;;;;7.40;7.00;;;;;8.41;65.99;97873.25;6149384;28;96761;-68
2023/02/04 01:20:39;;;;;;;;;6.60;6.60;;;;;8.44;65.68;97867.44;6135097;28;96781;-68
2023/02/04 01:23:43;;;;;;;;;8.00;8.00;;;;;8.48;65.48;97860.53;6134098;28;96756;-68
2023/02/04 01:26:47;;;;;;;;;7.00;6.00;;;;;8.53;65.16;97870.59;6134865;28;97587;-68
2023/02/04 01:29:51;;;;;;;;;6.00;6.00;;;;;8.67;64.84;97862.06;6134440;28;98857;-69
2023/02/04 01:32:56;;;;;;;;;6.60;5.60;;;;;8.64;64.59;97859.03;6117378;28;96688;-69
2023/02/04 01:35:59;;;;;;;;;7.00;6.40;;;;;8.56;64.67;97857.50;6148717;28;96382;-68
2023/02/04 01:39:04;;;;;;;;;7.00;6.40;;;;;8.53;64.87;97854.47;6125814;28;96688;-68
2023/02/04 01:42:07;;;;;;;;;6.40;6.00;;;;;8.60;64.55;97860.56;6145364;28;96214;-68
2023/02/04 01:45:11;;;;;;;;;7.80;7.00;;;;;8.68;64.45;97855.63;6126465;28;96994;-68
2023/02/04 01:48:20;;;;;;;;;5.00;4.40;;;;;8.64;64.16;97843.72;6143904;28;96264;-68
2023/02/04 01:51:29;;;;;;;;;6.50;6.50;;;;;8.79;64.10;97854.00;6125827;28;96231;-68
2023/02/04 01:54:32;;;;;;;;;6.00;5.00;;;;;8.84;63.94;97851.41;6141617;28;96220;-70
2023/02/04 01:57:36;;;;;;;;;4.00;4.00;;;;;8.85;63.94;97847.66;6111992;28;98306;-68
2023/02/04 02:00:40;;;;;;;;;5.75;5.75;;;;;8.90;63.65;97837.00;6129062;28;96251;-69
2023/02/04 02:03:45;;;;;;;;;4.00;4.00;;;;;8.99;63.01;97851.72;6146224;28;96283;-68
2023/02/04 02:06:52;;;;;;;;;6.20;6.20;;;;;8.94;62.90;97842.75;6147031;28;96269;-69
2023/02/04 02:09:56;;;;;;;;;3.00;3.00;;;;;8.95;63.08;97844.38;6128516;28;96240;-69
2023/02/04 02:12:59;;;;;;;;;4.00;4.00;;;;;8.89;62.88;97848.03;6129147;28;96454;-69
2023/02/04 02:16:03;;;;;;;;;4.00;4.00;;;;;8.79;63.07;97847.81;6146117;28;96230;-68
2023/02/04 02:19:13;;;;;;;;;5.25;5.25;;;;;8.92;62.90;97845.69;6147077;28;96249;-68
2023/02/04 02:22:24;;;;;;;;;5.00;5.00;;;;;8.78;63.47;97856.91;6130839;28;96764;-68
2023/02/04 02:25:29;;;;;;;;;3.00;3.00;;;;;8.81;62.97;97864.50;6131468;28;96291;-69
2023/02/04 02:28:32;;;;;;;;;6.00;6.00;;;;;8.82;63.54;97868.81;6145915;28;96144;-69
2023/02/04 02:31:36;;;;;;;;;6.00;6.00;;;;;8.82;63.53;97875.00;6126929;28;96337;-69
2023/02/04 02:34:41;;;;;;;;;7.00;7.00;;;;;8.79;63.47;97888.94;6145119;28;96645;-69
2023/02/04 02:37:44;;;;;;;;;4.50;4.50;;;;;8.66;63.69;97889.16;6128749;28;96298;-68
2023/02/04 02:40:51;;;;;;;;;6.00;5.00;;;;;8.71;63.32;97891.94;6145695;28;96531;-68
2023/02/04 02:43:57;;;;;;;;;5.00;4.20;;;;;8.85;62.67;97885.28;6128946;28;96249;-69
2023/02/04 02:47:01;;;;;;;;;5.50;5.50;;;;;8.89;62.27;97883.78;6129460;28;96228;-68
2023/02/04 02:50:05;;;;;;;;;4.20;4.20;;;;;8.88;61.65;97889.38;6146531;28;96240;-68
2023/02/04 02:53:12;;;;;;;;;5.00;4.00;;;;;9.03;61.22;97892.41;6148866;28;96581;-69
2023/02/04 02:56:19;;;;;;;;;5.00;5.00;;;;;8.97;61.01;97888.78;6129372;28;96396;-69
2023/02/04 02:59:23;;;;;;;;;3.00;3.00;;;;;9.13;60.85;97903.38;6140053;28;96331;-69
2023/02/04 03:02:27;;;;;;;;;4.00;4.00;;;;;9.20;60.34;97893.31;6131404;28;97176;-69
2023/02/04 03:05:34;;;;;;;;;2.00;2.00;;;;;9.24;60.00;97889.09;6147755;28;96426;-69
2023/02/04 03:08:38;;;;;;;;;7.00;6.00;;;;;9.27;59.73;97898.56;6139961;28;96484;-69
2023/02/04 03:11:43;;;;;;;;;3.00;3.00;;;;;9.35;59.37;97909.75;6131278;28;96361;-69
2023/02/04 03:14:46;;;;;;;;;4.00;4.00;;;;;9.31;59.18;97921.22;6130610;28;96223;-69
2023/02/04 03:17:55;;;;;;;;;3.00;3.00;;;;;9.30;58.73;97933.88;6131629;28;96322;-69
2023/02/04 03:20:59;;;;;;;;;3.60;3.40;;;;;9.31;58.73;97932.00;6148677;28;96327;-68
2023/02/04 03:24:02;;;;;;;;;4.25;3.25;;;;;9.28;58.23;97929.78;6130558;28;96332;-68
2023/02/04 03:27:08;;;;;;;;;5.00;4.50;;;;;9.29;58.17;97944.84;6131236;28;96222;-69
2023/02/04 03:30:11;;;;;;;;;3.40;3.00;;;;;9.24;58.20;97950.13;6131646;28;96572;-68
2023/02/04 03:33:15;;;;;;;;;4.00;4.00;;;;;9.22;57.67;97961.13;6149455;28;96219;-68
2023/02/04 03:36:18;;;;;;;;;3.00;3.00;;;;;9.23;57.46;97964.63;6148649;28;96318;-69
2023/02/04 03:39:22;;;;;;;;;5.00;4.60;;;;;9.21;57.02;97967.56;6151954;28;96406;-69
2023/02/04 03:42:27;;;;;;;;;4.00;3.00;;;;;9.26;56.48;97972.22;6151072;28;96333;-69
2023/02/04 03:45:30;;;;;;;;;2.00;2.00;;;;;9.25;56.55;97979.47;6151056;28;96179;-69
2023/02/04 03:48:46;;;;;;;;;4.00;4.00;;;;;9.22;55.86;97988.03;6136273;28;96201;-69
2023/02/04 03:51:50;;;;;;;;;3.75;3.75;;;;;9.22;56.40;98001.47;6148340;28;96505;-69
2023/02/04 03:54:53;;;;;;;;;4.00;4.00;;;;;9.09;56.51;98007.06;6151311;28;96299;-68
2023/02/04 03:57:58;;;;;;;;;4.60;4.00;;;;;9.09;56.57;98028.56;6148730;28;96260;-68
2023/02/04 04:01:02;;;;;;;;;3.50;3.50;;;;;9.09;56.54;98037.47;6150107;28;96310;-69
2023/02/04 04:04:05;;;;;;;;;4.00;3.40;;;;;9.08;57.11;98035.84;6150099;28;96531;-69
2023/02/04 04:07:08;;;;;;;;;3.00;3.00;;;;;9.06;57.31;98048.69;6148384;28;96310;-69
2023/02/04 04:10:12;;;;;;;;;5.00;5.00;;;;;8.99;57.40;98044.47;6145615;28;96316;-69
2023/02/04 04:13:16;;;;;;;;;5.00;5.00;;;;;9.04;57.43;98050.78;6145801;28;97452;-69
2023/02/04 04:16:20;;;;;;;;;6.00;5.00;;;;;9.07;56.88;98060.25;6143854;28;96222;-68
2023/02/04 04:19:24;;;;;;;;;5.00;5.00;;;;;9.06;56.87;98072.06;6144664;28;97105;-68
2023/02/04 04:22:27;;;;;;;;;6.00;4.50;;;;;9.02;56.72;98082.47;6127629;28;97524;-68
2023/02/04 04:25:31;;;;;;;;;4.00;4.00;;;;;8.97;56.42;98105.72;6142144;28;96609;-69
2023/02/04 04:28:35;;;;;;;;;3.60;3.40;;;;;8.83;56.54;98123.09;6143527;28;97539;-68
2023/02/04 04:31:39;;;;;;;;;5.00;5.00;;;;;8.65;56.83;98130.13;6126241;28;96340;-68
2023/02/04 04:34:43;;;;;;;;;2.00;2.00;;;;;8.39;56.64;98146.63;6146454;28;96254;-69
2023/02/04 04:37:46;;;;;;;;;5.00;4.00;;;;;8.26;56.15;98162.84;6146065;28;96213;-68
2023/02/04 04:40:50;;;;;;;;;4.60;4.60;;;;;7.98;56.67;98189.38;6145907;28;96484;-68
2023/02/04 04:43:54;;;;;;;;;5.60;5.60;;;;;7.94;57.05;98189.00;6142523;28;96283;-68
2023/02/04 04:46:58;;;;;;;;;7.75;7.00;;;;;7.79;57.11;98212.69;6128064;28;96964;-68
2023/02/04 04:50:01;;;;;;;;;8.00;8.00;;;;;7.69;57.50;98242.69;6148071;28;96254;-68
2023/02/04 04:53:09;;;;;;;;;9.60;8.80;;;;;7.45;57.86;98243.50;6148393;28;96279;-69
2023/02/04 04:56:13;;;;;;;;;9.00;8.50;;;;;7.49;57.67;98276.91;6148314;28;96265;-68
2023/02/04 04:59:18;;;;;;;;;11.00;11.00;;;;;7.40;57.46;98296.97;6145848;28;96256;-69
2023/02/04 05:02:21;;;;;;;;;10.75;10.75;;;;;7.17;56.66;98294.00;6143223;28;97280;-68
2023/02/04 05:05:24;;;;;;;;;16.00;15.00;;;;;7.12;56.72;98316.09;6144740;28;96603;-68
2023/02/04 05:08:28;;;;;;;;;15.25;15.25;;;;;6.91;57.10;98349.38;6144738;28;96950;-68
2023/02/04 05:11:31;;;;;;;;;13.00;12.75;;;;;6.89;57.01;98367.50;6122200;28;96642;-68
2023/02/04 05:14:36;;;;;;;;;14.20;14.00;;;;;6.87;57.20;98398.22;6124695;28;96944;-68
2023/02/04 05:17:39;;;;;;;;;14.60;13.00;;;;;6.63;57.38;98406.94;6139663;28;96702;-68
2023/02/04 05:20:42;;;;;;;;;11.00;11.00;;;;;6.58;57.68;98418.28;6141363;28;96108;-68
2023/02/04 05:23:46;;;;;;;;;12.80;11.80;;;;;6.53;57.34;98455.56;6141648;28;96270;-68
2023/02/04 05:26:49;;;;;;;;;11.67;10.67;;;;;6.45;57.29;98464.59;6141123;28;97308;-68
2023/02/04 05:29:54;;;;;;;;;13.00;12.00;;;;;6.56;57.13;98491.81;6140081;28;96987;-68
2023/02/04 05:32:57;;;;;;;;;10.40;10.40;;;;;6.46;57.21;98502.91;6127203;28;96436;-68
2023/02/04 05:36:01;;;;;;;;;10.00;10.00;;;;;6.50;57.60;98521.06;6143786;28;96275;-68
2023/02/04 05:39:04;;;;;;;;;11.75;11.00;;;;;6.36;57.46;98539.97;6145495;28;96539;-68
2023/02/04 05:42:07;;;;;;;;;9.00;9.00;;;;;6.20;57.66;98557.25;6144975;28;97799;-69
2023/02/04 05:45:15;;;;;;;;;9.60;9.00;;;;;6.16;57.81;98572.06;6145761;28;96285;-68
2023/02/04 05:48:18;;;;;;;;;6.00;6.00;;;;;6.03;57.16;98591.56;6144162;28;96722;-68
2023/02/04 05:51:22;;;;;;;;;10.40;10.00;;;;;6.03;57.77;98604.97;6142640;28;96825;-68
2023/02/04 05:54:25;;;;;;;;;10.00;9.60;;;;;6.03;58.07;98630.88;6143938;28;96905;-68
2023/02/04 05:57:28;;;;;;;;;8.75;8.00;;;;;6.03;58.33;98652.28;6144642;28;96263;-69
2023/02/04 06:00:33;;;;;;;;;8.20;7.80;;;;;6.03;57.98;98679.06;6143701;28;96795;-68
2023/02/04 06:03:37;;;;;;;;;10.25;8.25;;;;;6.01;57.59;98689.16;6145932;28;96214;-68
2023/02/04 06:06:40;;;;;;;;;10.25;9.50;;;;;6.05;57.92;98701.94;6145241;28;96290;-68
2023/02/04 06:09:43;;;;;;;;;12.60;11.60;;;;;6.11;57.60;98736.97;6142621;28;97462;-68
2023/02/04 06:12:47;;;;;;;;;9.00;9.00;;;;;6.03;57.43;98754.81;6140876;28;96214;-68
2023/02/04 06:15:52;;;;;;;;;9.00;8.00;;;;;5.89;56.97;98770.97;6138974;28;96737;-68
2023/02/04 06:18:55;;;;;;;;;7.00;7.00;;;;;5.88;57.26;98777.34;6123889;28;97784;-69
2023/02/04 06:21:58;;;;;;;;;8.40;7.60;;;;;5.86;57.29;98790.06;6138313;28;96364;-68
2023/02/04 06:25:02;;;;;;;;;7.75;7.00;;;;;5.94;57.49;98820.22;6146919;28;97336;-68
2023/02/04 06:28:05;;;;;;;;;10.00;8.00;;;;;6.00;57.17;98840.84;6146946;28;96295;-68
2023/02/04 06:31:10;;;;;;;;;7.60;6.60;;;;;6.05;56.72;98846.44;6136503;28;96434;-69
2023/02/04 06:34:13;;;;;;;;;9.00;9.00;;;;;6.13;56.59;98880.25;6144093;28;96239;-68
2023/02/04 06:37:16;;;;;;;;;7.00;7.00;;;;;6.08;56.39;98902.25;6127947;28;96658;-68
2023/02/04 06:40:20;;;;;;;;;7.00;7.00;;;;;5.99;56.31;98914.13;6126240;28;96832;-67
2023/02/04 06:43:24;;;;;;;;;10.20;9.20;;;;;5.96;55.61;98919.84;6146400;28;96314;-67
2023/02/04 06:46:29;;;;;;;;;7.40;7.00;;;;;5.99;55.71;98945.41;6141471;28;96339;-68
2023/02/04 06:49:32;;;;;;;;;10.00;10.00;;;;;6.00;55.83;98961.28;6135922;28;97494;-68
2023/02/04 06:52:36;;;;;;;;;9.00;8.00;;;;;5.93;54.85;98984.44;6111190;28;96225;-68
2023/02/04 06:55:39;;;;;;;;;6.00;6.00;;;;;5.98;54.46;99011.47;6114619;28;97107;-68
2023/02/04 06:58:42;;;;;;;;;8.50;7.00;;;;;5.87;53.99;99028.00;6133901;28;96264;-68
2023/02/04 07:01:47;;;;;;;;;6.00;5.00;;;;;5.92;53.06;99052.34;6124444;28;96947;-68
2023/02/04 07:04:51;;;;;;;;;5.00;5.00;;;;;6.03;53.23;99069.78;6130942;28;96317;-68
2023/02/04 07:07:54;;;;;;;;;8.00;7.00;;;;;6.05;52.36;99078.47;6137494;28;96203;-67
2023/02/04 07:10:58;;;;;;;;;8.50;8.00;;;;;6.07;52.28;99093.28;6134527;28;96596;-68
2023/02/04 07:14:01;;;;;;;;;9.00;8.80;;;;;6.14;51.84;99106.78;6145307;28;96675;-68
2023/02/04 07:17:06;;;;;;;;;8.60;7.60;;;;;6.19;50.93;99125.78;6138899;28;98128;-68
2023/02/04 07:20:10;;;;;;;;;9.00;9.00;;;;;6.18;50.36;99124.09;6122744;28;96604;-68
2023/02/04 07:23:14;;;;;;;;;12.00;10.00;;;;;6.27;50.04;99144.41;6154119;28;96535;-67
2023/02/04 07:26:17;;;;;;;;;9.00;8.00;;;;;6.17;50.34;99159.91;6150338;28;96562;-67
2023/02/04 07:29:20;;;;;;;;;10.75;9.75;;;;;6.19;50.56;99179.31;6137011;28;96578;-69
2023/02/04 07:32:31;;;;;;;;;8.75;8.00;;;;;6.28;49.96;99196.09;6133048;28;96693;-68
2023/02/04 07:35:36;;;;;;;;;8.00;7.00;;;;;6.31;49.73;99198.41;6148446;28;97258;-68
2023/02/04 07:38:40;;;;;;;;;10.00;10.00;;;;;6.30;49.26;99213.66;6135965;28;98004;-68
2023/02/04 07:41:43;;;;;;;;;10.50;10.00;;;;;6.38;49.34;99228.78;6149855;28;96924;-68
2023/02/04 07:44:48;;;;;;;;;11.40;11.00;;;;;6.32;49.67;99250.94;6128462;28;96943;-67
2023/02/04 07:47:54;;;;;;;;;13.00;12.00;;;;;6.29;49.31;99267.38;6147052;28;96591;-67
2023/02/04 07:50:57;;;;;;;;;12.50;11.50;;;;;6.35;49.66;99270.13;6145702;28;97415;-68
2023/02/04 07:54:00;;;;;;;;;9.80;8.80;;;;;6.33;49.43;99290.94;6147342;28;96557;-68
2023/02/04 07:57:04;;;;;;;;;12.00;12.00;;;;;6.34;49.37;99286.41;6132670;28;96410;-68
2023/02/04 08:00:08;;;;;;;;;13.00;11.00;;;;;6.28;49.59;99308.56;6149418;28;96440;-68
2023/02/04 08:03:18;;;;;;;;;10.00;10.00;;;;;6.27;49.03;99317.59;6150558;28;96526;-68
2023/02/04 08:06:22;;;;;;;;;10.80;8.80;;;;;6.36;48.32;99325.34;6151737;28;97455;-68
2023/02/04 08:09:26;;;;;;;;;10.00;10.00;;;;;6.33;47.97;99333.78;6152049;28;96531;-68
2023/02/04 08:12:29;;;;;;;;;11.00;10.00;;;;;6.42;47.92;99339.88;6150556;28;96294;-68
2023/02/04 08:15:32;;;;;;;;;8.00;7.00;;;;;6.39;48.91;99338.41;6135322;28;97052;-67
2023/02/04 08:18:37;;;;;;;;;10.80;9.80;;;;;6.47;47.25;99351.69;6151317;28;96926;-68
2023/02/04 08:21:40;;;;;;;;;9.60;9.00;;;;;6.62;47.40;99357.06;6133069;28;98394;-67
2023/02/04 08:24:44;;;;;;;;;9.50;9.50;;;;;6.68;47.02;99361.69;6150162;28;97080;-68
2023/02/04 08:27:47;;;;;;;;;11.00;9.00;;;;;6.70;47.32;99370.34;6148920;28;96163;-68
2023/02/04 08:30:51;;;;;;;;;11.50;11.00;;;;;6.76;47.25;99395.56;6150025;28;96985;-68
2023/02/04 08:33:56;;;;;;;;;10.60;9.60;;;;;6.84;46.61;99403.53;6151952;28;96505;-68
2023/02/04 08:36:59;;;;;;;;;12.40;12.00;;;;;6.81;46.79;99402.03;6133924;28;96956;-68
2023/02/04 08:40:03;;;;;;;;;9.00;9.00;;;;;6.84;46.53;99416.94;6133590;28;96599;-68
2023/02/04 08:43:06;;;;;;;;;10.33;10.00;;;;;6.97;46.54;99417.13;6133661;28;96656;-68
2023/02/04 08:46:09;;;;;;;;;12.80;12.00;;;;;7.19;45.90;99431.41;6150333;28;96682;-68
2023/02/04 08:49:14;;;;;;;;;13.00;12.00;;;;;7.55;45.56;99439.50;6149382;28;96454;-68
2023/02/04 08:52:18;;;;;;;;;10.40;9.40;;;;;7.82;44.41;99444.13;6134062;28;96887;-68
2023/02/04 08:55:21;;;;;;;;;10.60;9.60;;;;;8.10;44.36;99465.69;6143226;28;96529;-68
2023/02/04 08:58:24;;;;;;;;;13.00;13.00;;;;;8.63;42.36;99475.91;6113375;28;96448;-68
2023/02/04 09:01:28;;;;;;;;;10.40;9.40;;;;;9.57;40.28;99476.28;6137841;28;96297;-68
2023/02/04 09:04:33;;;;;;;;;10.00;10.00;;;;;11.20;37.89;99490.97;6148188;28;96336;-68
2023/02/04 09:07:36;;;;;;;;;6.40;6.40;;;;;12.43;35.82;99489.81;6151607;28;96427;-68
2023/02/04 09:10:39;;;;;;;;;10.00;10.00;;;;;13.37;34.51;99505.88;6142067;28;97152;-68
2023/02/04 09:13:43;;;;;;;;;9.00;7.80;;;;;13.74;33.54;99509.41;6140054;28;96422;-69
2023/02/04 09:16:47;;;;;;;;;8.25;7.50;;;;;13.26;33.12;99522.84;6146628;28;96347;-69
2023/02/04 09:19:52;;;;;;;;;9.25;8.25;;;;;12.65;34.23;99527.31;6148521;28;96328;-68
2023/02/04 09:22:56;;;;;;;;;9.40;9.40;;;;;12.18;34.75;99529.47;6145910;28;96349;-68
2023/02/04 09:26:00;;;;;;;;;11.00;10.60;;;;;11.72;35.68;99524.28;6150001;28;97858;-69
2023/02/04 09:29:03;;;;;;;;;9.00;9.00;;;;;11.42;35.34;99531.22;6149520;28;97624;-68
2023/02/04 09:32:07;;;;;;;;;10.00;9.40;;;;;11.17;35.80;99525.66;6147450;28;99473;-68
2023/02/04 09:35:12;;;;;;;;;13.00;13.00;;;;;11.14;36.12;99528.78;6147577;28;97048;-68
2023/02/04 09:38:15;;;;;;;;;11.00;10.00;;;;;11.04;38.50;99544.56;6146884;28;96153;-68
2023/02/04 09:41:18;;;;;;;;;11.00;10.20;;;;;10.87;36.93;99554.94;6150555;28;96570;-68
2023/02/04 09:44:26;;;;;;;;;11.20;11.00;;;;;10.45;37.00;99560.72;6147272;28;96375;-69
2023/02/04 09:47:30;;;;;;;;;12.80;12.80;;;;;10.26;37.68;99555.06;6155573;28;97006;-69
2023/02/04 09:50:35;;;;;;;;;11.00;11.00;;;;;9.94;37.86;99574.59;6152603;28;96839;-69
2023/02/04 09:53:39;;;;;;;;;11.60;11.20;;;;;9.77;37.78;99576.81;6148174;28;96425;-68
2023/02/04 09:56:42;;;;;;;;;10.00;10.00;;;;;10.15;37.40;99576.34;6126168;28;97467;-68
2023/02/04 09:59:47;;;;;;;;;13.60;11.80;;;;;11.32;36.39;99592.91;6124051;28;96749;-68
2023/02/04 10:02:50;;;;;;;;;14.00;14.00;;;;;11.47;35.49;99586.25;6134630;28;97287;-68
2023/02/04 10:05:55;;;;;;;;;12.00;12.00;;;;;11.46;36.81;99598.09;6141255;28;96293;-68
2023/02/04 10:08:59;;;;;;;;;11.40;11.40;;;;;11.20;36.53;99607.03;6140123;28;96924;-68
2023/02/04 10:12:04;;;;;;;;;9.40;9.00;;;;;10.76;37.64;99612.19;6132181;28;96467;-68
2023/02/04 10:15:12;;;;;;;;;12.00;11.00;;;;;10.33;38.39;99615.22;6138774;28;96625;-69
2023/02/04 10:18:22;;;;;;;;;13.00;13.00;;;;;9.81;39.07;99610.41;6136446;28;96624;-68
2023/02/04 10:21:30;;;;;;;;;14.40;13.40;;;;;9.56;39.56;99628.06;6131649;28;96577;-68
2023/02/04 10:24:34;;;;;;;;;20.00;19.00;;;;;9.18;39.83;99630.28;6138489;28;97434;-68
2023/02/04 10:27:47;;;;;;;;;13.20;12.00;;;;;8.93;40.59;99635.22;6137611;28;97521;-68
2023/02/04 10:30:51;;;;;;;;;16.00;16.00;;;;;8.62;41.73;99659.72;6144138;28;96262;-68
2023/02/04 10:34:06;;;;;;;;;12.60;12.00;;;;;8.20;42.39;99648.88;6145157;28;96268;-68
2023/02/04 10:37:20;;;;;;;;;19.00;17.00;;;;;7.88;42.23;99663.50;6145320;28;96377;-68
2023/02/04 10:40:28;;;;;;;;;14.00;12.50;;;;;7.76;42.20;99663.16;6129415;28;98793;-67
2023/02/04 10:43:32;;;;;;;;;14.25;13.25;;;;;8.05;42.55;99670.38;6127632;28;96426;-67
2023/02/04 10:46:36;;;;;;;;;14.75;14.00;;;;;9.13;39.39;99659.59;6140430;28;97055;-68
2023/02/04 10:49:39;;;;;;;;;12.00;12.00;;;;;11.26;36.06;99676.38;6138380;28;96380;-68
2023/02/04 10:52:47;;;;;;;;;10.60;10.40;;;;;12.89;32.77;99673.47;6139478;28;96310;-68
2023/02/04 10:55:52;;;;;;;;;9.50;9.50;;;;;14.30;29.18;99671.00;6138633;28;96782;-69
2023/02/04 10:58:55;;;;;;;;;11.60;11.00;;;;;16.27;28.20;99688.88;6130431;28;96704;-69
2023/02/04 11:02:00;;;;;;;;;9.00;9.00;;;;;17.41;26.66;99684.28;6138518;28;96371;-69
2023/02/04 11:05:11;;;;;;;;;11.00;11.00;;;;;17.51;26.03;99682.56;6130736;28;96410;-70
2023/02/04 11:08:22;;;;;;;;;9.00;9.00;;;;;16.38;25.18;99685.28;6138760;28;96391;-69
2023/02/04 11:11:26;;;;;;;;;8.00;7.25;;;;;16.00;26.32;99702.13;6142471;28;96629;-68
2023/02/04 11:14:30;;;;;;;;;10.00;10.00;;;;;15.95;26.70;99693.84;6123120;28;97100;-69
2023/02/04 11:17:35;;;;;;;;;8.60;8.00;;;;;16.17;26.60;99697.66;6140002;28;97393;-70
2023/02/04 11:20:39;;;;;;;;;12.00;11.00;;;;;16.42;24.76;99703.63;6140103;28;96519;-69
2023/02/04 11:23:44;;;;;;;;;8.00;8.00;;;;;15.98;25.60;99701.53;6138364;28;96284;-69
2023/02/04 11:26:49;;;;;;;;;8.00;7.00;;;;;15.07;26.30;99694.63;6121508;28;96542;-69
2023/02/04 11:30:05;;;;;;;;;8.20;7.20;;;;;13.88;27.77;99703.34;6140157;28;96334;-69
2023/02/04 11:33:23;;;;;;;;;8.25;8.25;;;;;14.19;26.84;99710.53;6140350;28;96220;-68
2023/02/04 11:36:29;;;;;;;;;6.20;6.20;;;;;15.09;25.32;99692.53;6139905;28;96573;-70
2023/02/04 11:39:37;;;;;;;;;9.00;8.00;;;;;15.59;24.72;99700.34;6139205;28;96313;-70
2023/02/04 11:42:42;;;;;;;;;8.60;8.00;;;;;15.11;25.59;99716.72;6139772;28;96710;-69
2023/02/04 11:45:46;;;;;;;;;9.20;9.20;;;;;14.79;25.26;99718.84;6138901;28;96481;-69
2023/02/04 11:48:52;;;;;;;;;8.60;8.00;;;;;14.92;25.49;99704.25;6137081;28;97177;-70
2023/02/04 11:52:07;;;;;;;;;10.00;10.00;;;;;16.08;25.05;99715.38;6139391;28;96467;-69
2023/02/04 11:55:13;;;;;;;;;10.60;9.00;;;;;15.96;24.41;99729.00;6138964;28;96511;-69
2023/02/04 11:58:20;;;;;;;;;8.00;7.60;;;;;15.01;25.77;99730.03;6140095;28;96544;-69
2023/02/04 12:01:25;;;;;;;;;9.00;9.00;;;;;13.77;26.04;99738.50;6140220;28;96404;-69
2023/02/04 12:04:28;;;;;;;;;8.50;8.00;;;;;13.76;26.71;99744.97;6138303;28;96280;-69
2023/02/04 12:07:32;;;;;;;;;7.60;7.60;;;;;14.35;27.54;99757.13;6137877;28;96682;-68
2023/02/04 12:10:37;;;;;;;;;13.00;12.60;;;;;13.72;26.74;99754.59;6134578;28;96723;-69
2023/02/04 12:13:48;;;;;;;;;15.00;13.50;;;;;12.66;27.79;99753.53;6138098;28;96991;-68
2023/02/04 12:16:51;;;;;;;;;10.50;10.50;;;;;11.98;29.42;99763.88;6137655;28;96946;-69
2023/02/04 12:19:55;;;;;;;;;10.80;10.00;;;;;11.26;30.33;99772.72;6121929;28;96795;-69
2023/02/04 12:22:59;;;;;;;;;9.40;9.00;;;;;11.29;29.14;99758.81;6121446;28;97510;-68
2023/02/04 12:26:04;;;;;;;;;12.00;10.40;;;;;12.63;27.48;99771.00;6138768;28;96893;-69
2023/02/04 12:29:08;;;;;;;;;11.25;10.25;;;;;13.71;25.78;99761.88;6137614;28;96263;-70
2023/02/04 12:32:12;;;;;;;;;10.00;9.20;;;;;13.89;25.32;99788.22;6121211;28;96498;-68
2023/02/04 12:35:15;;;;;;;;;13.00;12.00;;;;;12.97;26.86;99794.19;6121061;28;97186;-69
2023/02/04 12:38:19;;;;;;;;;13.60;12.60;;;;;12.12;28.04;99797.94;6139042;28;96654;-69
2023/02/04 12:41:24;;;;;;;;;11.25;9.00;;;;;11.17;29.28;99800.94;6140744;28;96276;-69
2023/02/04 12:44:27;;;;;;;;;11.00;9.60;;;;;10.36;30.19;99803.47;6137354;28;96560;-69
2023/02/04 12:47:31;;;;;;;;;8.00;8.00;;;;;9.62;30.65;99799.59;6141566;28;96261;-67
2023/02/04 12:50:34;;;;;;;;;8.80;8.80;;;;;9.02;31.49;99816.97;6135319;28;96556;-68
2023/02/04 12:53:37;;;;;;;;;8.80;7.20;;;;;8.52;33.02;99824.97;6141984;28;96275;-68
2023/02/04 12:56:42;;;;;;;;;9.00;8.00;;;;;8.10;33.87;99839.00;6143178;28;97140;-69
2023/02/04 12:59:46;;;;;;;;;8.20;8.20;;;;;7.67;34.63;99846.75;6144363;28;96919;-68
2023/02/04 13:02:49;;;;;;;;;10.60;9.00;;;;;7.38;33.70;99844.78;6141907;28;96506;-68
2023/02/04 13:05:53;;;;;;;;;6.00;6.00;;;;;7.30;33.96;99844.84;6140597;28;96359;-68
2023/02/04 13:08:56;;;;;;;;;6.80;6.80;;;;;7.17;33.83;99855.31;6143883;28;96664;-68
2023/02/04 13:12:01;;;;;;;;;7.20;7.00;;;;;6.97;34.25;99860.28;6142114;28;97177;-68
2023/02/04 13:15:06;;;;;;;;;6.20;6.00;;;;;6.91;34.79;99860.97;6138232;28;96328;-68
2023/02/04 13:18:09;;;;;;;;;12.50;12.50;;;;;6.86;35.26;99860.66;6146370;28;96467;-69
2023/02/04 13:21:12;;;;;;;;;7.75;7.00;;;;;6.80;35.54;99868.56;6126396;28;100117;-68
2023/02/04 13:24:17;;;;;;;;;8.20;7.60;;;;;6.84;36.23;99883.31;6130228;28;96664;-67
2023/02/04 13:27:21;;;;;;;;;7.00;7.00;;;;;7.17;35.18;99863.38;6139099;28;96390;-67
2023/02/04 13:30:25;;;;;;;;;10.75;9.75;;;;;7.62;34.89;99873.31;6149094;28;96236;-68
2023/02/04 13:33:28;;;;;;;;;6.00;5.60;;;;;8.17;34.02;99872.16;6147558;28;96355;-67
2023/02/04 13:36:32;;;;;;;;;8.75;8.75;;;;;8.79;33.15;99872.72;6131893;28;96686;-68
2023/02/04 13:39:35;;;;;;;;;7.75;7.00;;;;;9.32;33.03;99871.53;6151113;28;96096;-68
2023/02/04 13:42:40;;;;;;;;;5.20;5.00;;;;;9.71;31.29;99875.66;6149954;28;96807;-68
2023/02/04 13:45:47;;;;;;;;;8.00;7.40;;;;;10.07;30.59;99864.81;6146313;28;96338;-69
2023/02/04 13:48:50;;;;;;;;;8.40;7.40;;;;;10.27;30.46;99873.91;6145683;28;96442;-68
2023/02/04 13:51:54;;;;;;;;;5.00;5.00;;;;;10.40;29.62;99887.50;6151047;28;96536;-69
2023/02/04 13:54:57;;;;;;;;;8.00;7.00;;;;;10.53;30.19;99892.16;6133229;28;96898;-68
2023/02/04 13:58:02;;;;;;;;;6.00;5.80;;;;;10.64;29.52;99892.44;6155311;28;96334;-68
2023/02/04 14:01:05;;;;;;;;;6.00;5.00;;;;;10.65;28.64;99895.97;6165060;28;96248;-68
2023/02/04 14:04:08;;;;;;;;;6.00;6.00;;;;;10.75;29.20;99899.16;6163485;28;95935;-67
2023/02/04 14:07:12;;;;;;;;;8.00;8.00;;;;;10.61;29.17;99903.59;6146335;28;96434;-68
2023/02/04 14:10:16;;;;;;;;;7.80;7.20;;;;;10.55;29.52;99906.28;6162955;28;96246;-68
2023/02/04 14:13:20;;;;;;;;;8.50;8.50;;;;;10.50;29.45;99909.56;6163204;28;96276;-68
2023/02/04 14:16:23;;;;;;;;;8.50;8.00;;;;;9.81;29.81;99906.66;6162602;28;96293;-69
2023/02/04 14:19:27;;;;;;;;;10.00;9.60;;;;;9.48;30.90;99908.16;6163355;28;96299;-67
2023/02/04 14:22:31;;;;;;;;;8.60;8.00;;;;;9.18;31.53;99918.16;6161204;28;96707;-68
2023/02/04 14:25:34;;;;;;;;;7.40;7.40;;;;;8.95;32.51;99914.72;6161568;28;96300;-68
2023/02/04 14:28:39;;;;;;;;;9.00;9.00;;;;;8.59;32.46;99926.22;6162319;28;96384;-68